sensor_id;sensor_type;location;lat;lon;timestamp;P1;durP1;ratioP1;P2;durP2;ratioP2
55210;SDS011;41082;52.822;6.666;2023-07-31T00:02:00;3.80;;;1.58;;
55210;SDS011;41082;52.822;6.666;2023-07-31T00:04:25;3.15;;;1.42;;
55210;SDS011;41082;52.822;6.666;2023-07-31T00:06:51;3.05;;;1.55;;
55210;SDS011;41082;52.822;6.666;2023-07-31T00:09:16;1.95;;;1.15;;
55210;SDS011;41082;52.822;6.666;2023-07-31T00:11:42;2.47;;;1.45;;
55210;SDS011;41082;52.822;6.666;2023-07-31T00:14:07;3.00;;;1.23;;
55210;SDS011;41082;52.822;6.666;2023-07-31T00:16:33;3.38;;;1.67;;
55210;SDS011;41082;52.822;6.666;2023-07-31T00:18:59;3.28;;;1.30;;
55210;SDS011;41082;52.822;6.666;2023-07-31T00:21:24;3.50;;;1.40;;
55210;SDS011;41082;52.822;6.666;2023-07-31T00:23:50;3.25;;;1.48;;
55210;SDS011;41082;52.822;6.666;2023-07-31T00:26:15;3.28;;;1.45;;
55210;SDS011;41082;52.822;6.666;2023-07-31T00:28:41;3.17;;;1.60;;
55210;SDS011;41082;52.822;6.666;2023-07-31T00:31:06;2.45;;;1.13;;
55210;SDS011;41082;52.822;6.666;2023-07-31T00:33:34;2.92;;;1.02;;
55210;SDS011;41082;52.822;6.666;2023-07-31T00:36:00;1.90;;;1.20;;
55210;SDS011;41082;52.822;6.666;2023-07-31T00:38:25;2.78;;;1.17;;
55210;SDS011;41082;52.822;6.666;2023-07-31T00:40:51;2.70;;;0.90;;
55210;SDS011;41082;52.822;6.666;2023-07-31T00:43:16;1.63;;;1.15;;
55210;SDS011;41082;52.822;6.666;2023-07-31T00:45:42;2.92;;;1.60;;
55210;SDS011;41082;52.822;6.666;2023-07-31T00:48:08;3.10;;;0.95;;
55210;SDS011;41082;52.822;6.666;2023-07-31T00:50:34;2.83;;;1.00;;
55210;SDS011;41082;52.822;6.666;2023-07-31T00:53:00;2.15;;;0.98;;
55210;SDS011;41082;52.822;6.666;2023-07-31T00:55:26;2.45;;;1.05;;
55210;SDS011;41082;52.822;6.666;2023-07-31T00:57:52;1.73;;;0.85;;
55210;SDS011;41082;52.822;6.666;2023-07-31T01:00:20;3.42;;;1.10;;
55210;SDS011;41082;52.822;6.666;2023-07-31T01:02:46;2.40;;;1.08;;
55210;SDS011;41082;52.822;6.666;2023-07-31T01:05:13;1.38;;;0.57;;
55210;SDS011;41082;52.822;6.666;2023-07-31T01:10:23;1.85;;;0.70;;
55210;SDS011;41082;52.822;6.666;2023-07-31T01:12:54;2.70;;;1.20;;
55210;SDS011;41082;52.822;6.666;2023-07-31T01:15:22;2.65;;;0.80;;
55210;SDS011;41082;52.822;6.666;2023-07-31T01:17:48;2.00;;;0.60;;
55210;SDS011;41082;52.822;6.666;2023-07-31T01:20:17;1.88;;;0.68;;
55210;SDS011;41082;52.822;6.666;2023-07-31T01:25:46;2.72;;;0.52;;
55210;SDS011;41082;52.822;6.666;2023-07-31T01:28:36;0.93;;;0.50;;
55210;SDS011;41082;52.822;6.666;2023-07-31T01:31:13;1.52;;;0.52;;
55210;SDS011;41082;52.822;6.666;2023-07-31T01:33:42;1.30;;;0.50;;
55210;SDS011;41082;52.822;6.666;2023-07-31T01:36:08;1.05;;;0.47;;
55210;SDS011;41082;52.822;6.666;2023-07-31T01:38:34;1.17;;;0.47;;
55210;SDS011;41082;52.822;6.666;2023-07-31T01:40:59;1.08;;;0.55;;
55210;SDS011;41082;52.822;6.666;2023-07-31T01:43:25;1.30;;;0.30;;
55210;SDS011;41082;52.822;6.666;2023-07-31T01:45:50;1.25;;;0.30;;
55210;SDS011;41082;52.822;6.666;2023-07-31T01:48:16;0.85;;;0.47;;
55210;SDS011;41082;52.822;6.666;2023-07-31T01:50:41;1.15;;;0.30;;
55210;SDS011;41082;52.822;6.666;2023-07-31T01:53:07;1.38;;;0.30;;
55210;SDS011;41082;52.822;6.666;2023-07-31T01:55:32;0.88;;;0.25;;
55210;SDS011;41082;52.822;6.666;2023-07-31T01:57:58;0.80;;;0.30;;
55210;SDS011;41082;52.822;6.666;2023-07-31T02:00:24;0.60;;;0.30;;
55210;SDS011;41082;52.822;6.666;2023-07-31T02:02:49;1.23;;;0.38;;
55210;SDS011;41082;52.822;6.666;2023-07-31T02:05:15;0.85;;;0.30;;
55210;SDS011;41082;52.822;6.666;2023-07-31T02:07:40;0.60;;;0.30;;
55210;SDS011;41082;52.822;6.666;2023-07-31T02:10:06;1.02;;;0.30;;
55210;SDS011;41082;52.822;6.666;2023-07-31T02:12:32;1.80;;;0.30;;
55210;SDS011;41082;52.822;6.666;2023-07-31T02:14:58;1.17;;;0.30;;
55210;SDS011;41082;52.822;6.666;2023-07-31T02:17:24;1.60;;;0.50;;
55210;SDS011;41082;52.822;6.666;2023-07-31T02:19:50;0.77;;;0.30;;
55210;SDS011;41082;52.822;6.666;2023-07-31T02:22:15;1.20;;;0.32;;
55210;SDS011;41082;52.822;6.666;2023-07-31T02:24:41;0.50;;;0.15;;
55210;SDS011;41082;52.822;6.666;2023-07-31T02:27:06;0.43;;;0.17;;
55210;SDS011;41082;52.822;6.666;2023-07-31T02:29:32;0.90;;;0.20;;
55210;SDS011;41082;52.822;6.666;2023-07-31T02:31:57;0.60;;;0.20;;
55210;SDS011;41082;52.822;6.666;2023-07-31T02:34:23;0.63;;;0.20;;
55210;SDS011;41082;52.822;6.666;2023-07-31T02:36:48;1.65;;;0.30;;
55210;SDS011;41082;52.822;6.666;2023-07-31T02:39:14;1.08;;;0.15;;
55210;SDS011;41082;52.822;6.666;2023-07-31T02:41:39;0.70;;;0.10;;
55210;SDS011;41082;52.822;6.666;2023-07-31T02:44:05;2.15;;;0.13;;
55210;SDS011;41082;52.822;6.666;2023-07-31T02:46:31;0.70;;;0.20;;
55210;SDS011;41082;52.822;6.666;2023-07-31T02:48:56;0.20;;;0.10;;
55210;SDS011;41082;52.822;6.666;2023-07-31T02:51:22;0.32;;;0.10;;
55210;SDS011;41082;52.822;6.666;2023-07-31T02:53:48;0.22;;;0.10;;
55210;SDS011;41082;52.822;6.666;2023-07-31T02:56:13;1.50;;;0.20;;
55210;SDS011;41082;52.822;6.666;2023-07-31T02:58:39;0.55;;;0.20;;
55210;SDS011;41082;52.822;6.666;2023-07-31T03:01:04;0.63;;;0.10;;
55210;SDS011;41082;52.822;6.666;2023-07-31T03:03:30;3.25;;;0.30;;
55210;SDS011;41082;52.822;6.666;2023-07-31T03:05:56;0.20;;;0.10;;
55210;SDS011;41082;52.822;6.666;2023-07-31T03:08:21;0.32;;;0.13;;
55210;SDS011;41082;52.822;6.666;2023-07-31T03:10:47;0.68;;;0.30;;
55210;SDS011;41082;52.822;6.666;2023-07-31T03:13:12;0.88;;;0.20;;
55210;SDS011;41082;52.822;6.666;2023-07-31T03:15:38;0.80;;;0.30;;
55210;SDS011;41082;52.822;6.666;2023-07-31T03:18:06;0.90;;;0.30;;
55210;SDS011;41082;52.822;6.666;2023-07-31T03:20:32;0.75;;;0.32;;
55210;SDS011;41082;52.822;6.666;2023-07-31T03:22:57;0.80;;;0.70;;
55210;SDS011;41082;52.822;6.666;2023-07-31T03:25:23;2.15;;;0.50;;
55210;SDS011;41082;52.822;6.666;2023-07-31T03:27:48;1.52;;;0.68;;
55210;SDS011;41082;52.822;6.666;2023-07-31T03:30:14;1.27;;;0.50;;
55210;SDS011;41082;52.822;6.666;2023-07-31T03:32:39;1.45;;;0.50;;
55210;SDS011;41082;52.822;6.666;2023-07-31T03:35:05;3.28;;;0.50;;
55210;SDS011;41082;52.822;6.666;2023-07-31T03:37:31;1.35;;;0.45;;
55210;SDS011;41082;52.822;6.666;2023-07-31T03:39:56;0.90;;;0.55;;
55210;SDS011;41082;52.822;6.666;2023-07-31T03:42:22;1.00;;;0.50;;
55210;SDS011;41082;52.822;6.666;2023-07-31T03:44:47;0.65;;;0.40;;
55210;SDS011;41082;52.822;6.666;2023-07-31T03:47:13;0.80;;;0.50;;
55210;SDS011;41082;52.822;6.666;2023-07-31T03:49:39;1.77;;;0.50;;
55210;SDS011;41082;52.822;6.666;2023-07-31T03:52:04;0.50;;;0.30;;
55210;SDS011;41082;52.822;6.666;2023-07-31T03:54:30;0.80;;;0.30;;
55210;SDS011;41082;52.822;6.666;2023-07-31T03:56:56;0.60;;;0.40;;
55210;SDS011;41082;52.822;6.666;2023-07-31T03:59:21;2.65;;;0.50;;
55210;SDS011;41082;52.822;6.666;2023-07-31T04:01:47;1.70;;;0.50;;
55210;SDS011;41082;52.822;6.666;2023-07-31T04:04:13;1.75;;;0.80;;
55210;SDS011;41082;52.822;6.666;2023-07-31T04:06:38;1.92;;;0.50;;
55210;SDS011;41082;52.822;6.666;2023-07-31T04:09:04;1.95;;;0.70;;
55210;SDS011;41082;52.822;6.666;2023-07-31T04:11:29;2.42;;;0.80;;
55210;SDS011;41082;52.822;6.666;2023-07-31T04:13:55;2.60;;;0.80;;
55210;SDS011;41082;52.822;6.666;2023-07-31T04:16:20;1.50;;;0.80;;
55210;SDS011;41082;52.822;6.666;2023-07-31T04:18:46;2.10;;;0.98;;
55210;SDS011;41082;52.822;6.666;2023-07-31T04:21:11;3.92;;;0.60;;
55210;SDS011;41082;52.822;6.666;2023-07-31T04:23:37;1.90;;;0.80;;
55210;SDS011;41082;52.822;6.666;2023-07-31T04:26:03;2.83;;;0.82;;
55210;SDS011;41082;52.822;6.666;2023-07-31T04:28:28;3.28;;;0.90;;
55210;SDS011;41082;52.822;6.666;2023-07-31T04:30:56;7.40;;;0.95;;
55210;SDS011;41082;52.822;6.666;2023-07-31T04:33:22;3.00;;;0.60;;
55210;SDS011;41082;52.822;6.666;2023-07-31T04:35:53;3.08;;;0.88;;
55210;SDS011;41082;52.822;6.666;2023-07-31T04:38:19;3.83;;;1.13;;
55210;SDS011;41082;52.822;6.666;2023-07-31T04:40:46;2.55;;;0.80;;
55210;SDS011;41082;52.822;6.666;2023-07-31T04:43:11;2.72;;;1.02;;
55210;SDS011;41082;52.822;6.666;2023-07-31T04:45:37;4.07;;;1.33;;
55210;SDS011;41082;52.822;6.666;2023-07-31T04:48:03;4.10;;;1.20;;
55210;SDS011;41082;52.822;6.666;2023-07-31T04:50:28;4.43;;;1.42;;
55210;SDS011;41082;52.822;6.666;2023-07-31T04:52:55;3.10;;;1.25;;
55210;SDS011;41082;52.822;6.666;2023-07-31T04:55:21;6.07;;;1.90;;
55210;SDS011;41082;52.822;6.666;2023-07-31T04:57:46;5.93;;;2.10;;
55210;SDS011;41082;52.822;6.666;2023-07-31T05:00:12;7.05;;;2.25;;
55210;SDS011;41082;52.822;6.666;2023-07-31T05:02:38;8.77;;;2.20;;
55210;SDS011;41082;52.822;6.666;2023-07-31T05:05:03;6.18;;;1.98;;
55210;SDS011;41082;52.822;6.666;2023-07-31T05:07:29;8.27;;;2.90;;
55210;SDS011;41082;52.822;6.666;2023-07-31T05:09:55;9.38;;;3.35;;
55210;SDS011;41082;52.822;6.666;2023-07-31T05:12:20;9.38;;;3.53;;
55210;SDS011;41082;52.822;6.666;2023-07-31T05:14:46;10.63;;;3.97;;
55210;SDS011;41082;52.822;6.666;2023-07-31T05:17:11;12.02;;;3.95;;
55210;SDS011;41082;52.822;6.666;2023-07-31T05:19:37;15.32;;;4.22;;
55210;SDS011;41082;52.822;6.666;2023-07-31T05:22:02;14.85;;;4.78;;
55210;SDS011;41082;52.822;6.666;2023-07-31T05:24:28;15.55;;;4.75;;
55210;SDS011;41082;52.822;6.666;2023-07-31T05:26:54;17.25;;;5.07;;
55210;SDS011;41082;52.822;6.666;2023-07-31T05:29:20;14.73;;;5.47;;
55210;SDS011;41082;52.822;6.666;2023-07-31T05:31:46;16.50;;;5.43;;
55210;SDS011;41082;52.822;6.666;2023-07-31T05:34:12;18.73;;;4.78;;
55210;SDS011;41082;52.822;6.666;2023-07-31T05:36:37;18.25;;;5.18;;
55210;SDS011;41082;52.822;6.666;2023-07-31T05:39:03;16.88;;;5.32;;
55210;SDS011;41082;52.822;6.666;2023-07-31T05:41:32;19.67;;;5.35;;
55210;SDS011;41082;52.822;6.666;2023-07-31T05:43:57;18.48;;;5.40;;
55210;SDS011;41082;52.822;6.666;2023-07-31T05:46:23;18.15;;;5.65;;
55210;SDS011;41082;52.822;6.666;2023-07-31T05:48:48;16.73;;;5.78;;
55210;SDS011;41082;52.822;6.666;2023-07-31T05:51:14;18.17;;;5.15;;
55210;SDS011;41082;52.822;6.666;2023-07-31T05:53:40;24.65;;;5.65;;
55210;SDS011;41082;52.822;6.666;2023-07-31T05:56:05;19.23;;;6.10;;
55210;SDS011;41082;52.822;6.666;2023-07-31T05:58:31;21.15;;;5.95;;
55210;SDS011;41082;52.822;6.666;2023-07-31T06:00:57;21.55;;;6.47;;
55210;SDS011;41082;52.822;6.666;2023-07-31T06:03:23;20.02;;;5.65;;
55210;SDS011;41082;52.822;6.666;2023-07-31T06:05:48;22.75;;;6.75;;
55210;SDS011;41082;52.822;6.666;2023-07-31T06:08:14;20.65;;;6.43;;
55210;SDS011;41082;52.822;6.666;2023-07-31T06:10:39;21.88;;;6.78;;
55210;SDS011;41082;52.822;6.666;2023-07-31T06:13:05;23.08;;;6.57;;
55210;SDS011;41082;52.822;6.666;2023-07-31T06:15:30;21.40;;;6.75;;
55210;SDS011;41082;52.822;6.666;2023-07-31T06:17:56;24.55;;;6.00;;
55210;SDS011;41082;52.822;6.666;2023-07-31T06:20:22;20.67;;;6.70;;
55210;SDS011;41082;52.822;6.666;2023-07-31T06:22:48;19.55;;;6.07;;
55210;SDS011;41082;52.822;6.666;2023-07-31T06:25:13;19.85;;;6.43;;
55210;SDS011;41082;52.822;6.666;2023-07-31T06:27:39;17.45;;;5.93;;
55210;SDS011;41082;52.822;6.666;2023-07-31T06:30:05;17.23;;;5.85;;
55210;SDS011;41082;52.822;6.666;2023-07-31T06:32:31;17.80;;;5.45;;
55210;SDS011;41082;52.822;6.666;2023-07-31T06:34:57;20.48;;;7.05;;
55210;SDS011;41082;52.822;6.666;2023-07-31T06:37:23;15.57;;;5.63;;
55210;SDS011;41082;52.822;6.666;2023-07-31T06:39:48;15.27;;;5.68;;
55210;SDS011;41082;52.822;6.666;2023-07-31T06:42:14;15.32;;;6.25;;
55210;SDS011;41082;52.822;6.666;2023-07-31T06:44:39;22.05;;;7.07;;
55210;SDS011;41082;52.822;6.666;2023-07-31T06:47:05;19.92;;;6.32;;
55210;SDS011;41082;52.822;6.666;2023-07-31T06:49:30;17.63;;;6.25;;
55210;SDS011;41082;52.822;6.666;2023-07-31T06:51:56;17.83;;;6.50;;
55210;SDS011;41082;52.822;6.666;2023-07-31T06:54:21;20.88;;;7.07;;
55210;SDS011;41082;52.822;6.666;2023-07-31T06:56:47;23.13;;;7.93;;
55210;SDS011;41082;52.822;6.666;2023-07-31T06:59:13;18.85;;;7.10;;
55210;SDS011;41082;52.822;6.666;2023-07-31T07:01:38;17.23;;;6.13;;
55210;SDS011;41082;52.822;6.666;2023-07-31T07:04:04;14.65;;;5.90;;
55210;SDS011;41082;52.822;6.666;2023-07-31T07:06:29;17.90;;;7.13;;
55210;SDS011;41082;52.822;6.666;2023-07-31T07:08:55;20.65;;;7.00;;
55210;SDS011;41082;52.822;6.666;2023-07-31T07:11:20;16.10;;;6.00;;
55210;SDS011;41082;52.822;6.666;2023-07-31T07:13:46;12.93;;;6.05;;
55210;SDS011;41082;52.822;6.666;2023-07-31T07:16:12;15.68;;;6.78;;
55210;SDS011;41082;52.822;6.666;2023-07-31T07:18:37;14.18;;;5.68;;
55210;SDS011;41082;52.822;6.666;2023-07-31T07:21:03;12.18;;;4.90;;
55210;SDS011;41082;52.822;6.666;2023-07-31T07:23:29;10.50;;;4.68;;
55210;SDS011;41082;52.822;6.666;2023-07-31T07:25:55;10.70;;;4.05;;
55210;SDS011;41082;52.822;6.666;2023-07-31T07:28:20;6.70;;;3.97;;
55210;SDS011;41082;52.822;6.666;2023-07-31T07:30:50;9.82;;;3.85;;
55210;SDS011;41082;52.822;6.666;2023-07-31T07:33:17;8.68;;;3.13;;
55210;SDS011;41082;52.822;6.666;2023-07-31T07:35:43;8.75;;;3.38;;
55210;SDS011;41082;52.822;6.666;2023-07-31T07:38:09;6.60;;;3.17;;
55210;SDS011;41082;52.822;6.666;2023-07-31T07:40:38;8.18;;;2.97;;
55210;SDS011;41082;52.822;6.666;2023-07-31T07:43:04;5.65;;;2.47;;
55210;SDS011;41082;52.822;6.666;2023-07-31T07:45:30;7.47;;;2.80;;
55210;SDS011;41082;52.822;6.666;2023-07-31T07:47:55;9.13;;;2.50;;
55210;SDS011;41082;52.822;6.666;2023-07-31T07:50:21;6.07;;;2.83;;
55210;SDS011;41082;52.822;6.666;2023-07-31T07:52:46;7.88;;;2.80;;
55210;SDS011;41082;52.822;6.666;2023-07-31T07:55:12;4.65;;;2.65;;
55210;SDS011;41082;52.822;6.666;2023-07-31T07:57:38;4.63;;;2.20;;
55210;SDS011;41082;52.822;6.666;2023-07-31T08:00:04;3.22;;;1.80;;
55210;SDS011;41082;52.822;6.666;2023-07-31T08:02:30;4.80;;;2.50;;
55210;SDS011;41082;52.822;6.666;2023-07-31T08:04:56;3.88;;;1.95;;
55210;SDS011;41082;52.822;6.666;2023-07-31T08:07:21;3.88;;;2.00;;
55210;SDS011;41082;52.822;6.666;2023-07-31T08:09:47;5.32;;;1.85;;
55210;SDS011;41082;52.822;6.666;2023-07-31T08:12:12;5.63;;;2.13;;
55210;SDS011;41082;52.822;6.666;2023-07-31T08:14:38;5.72;;;2.28;;
55210;SDS011;41082;52.822;6.666;2023-07-31T08:17:04;3.95;;;2.05;;
55210;SDS011;41082;52.822;6.666;2023-07-31T08:19:29;4.55;;;1.85;;
55210;SDS011;41082;52.822;6.666;2023-07-31T08:21:55;2.88;;;1.95;;
55210;SDS011;41082;52.822;6.666;2023-07-31T08:24:20;2.83;;;1.40;;
55210;SDS011;41082;52.822;6.666;2023-07-31T08:26:46;2.85;;;1.40;;
55210;SDS011;41082;52.822;6.666;2023-07-31T08:29:12;2.85;;;1.38;;
55210;SDS011;41082;52.822;6.666;2023-07-31T08:31:37;4.10;;;1.67;;
55210;SDS011;41082;52.822;6.666;2023-07-31T08:34:03;4.60;;;1.38;;
55210;SDS011;41082;52.822;6.666;2023-07-31T08:36:29;2.38;;;1.23;;
55210;SDS011;41082;52.822;6.666;2023-07-31T08:38:54;2.00;;;1.10;;
55210;SDS011;41082;52.822;6.666;2023-07-31T08:41:20;4.70;;;1.17;;
55210;SDS011;41082;52.822;6.666;2023-07-31T08:43:46;2.17;;;1.40;;
55210;SDS011;41082;52.822;6.666;2023-07-31T08:46:11;3.03;;;1.30;;
55210;SDS011;41082;52.822;6.666;2023-07-31T08:48:39;2.33;;;1.10;;
55210;SDS011;41082;52.822;6.666;2023-07-31T08:51:07;2.05;;;0.80;;
55210;SDS011;41082;52.822;6.666;2023-07-31T08:53:32;1.58;;;0.80;;
55210;SDS011;41082;52.822;6.666;2023-07-31T08:55:58;2.70;;;0.98;;
55210;SDS011;41082;52.822;6.666;2023-07-31T08:58:25;1.48;;;0.70;;
55210;SDS011;41082;52.822;6.666;2023-07-31T09:00:52;2.00;;;0.68;;
55210;SDS011;41082;52.822;6.666;2023-07-31T09:03:21;2.05;;;0.93;;
55210;SDS011;41082;52.822;6.666;2023-07-31T09:05:49;1.90;;;0.50;;
55210;SDS011;41082;52.822;6.666;2023-07-31T09:08:17;1.50;;;0.55;;
55210;SDS011;41082;52.822;6.666;2023-07-31T09:10:45;1.08;;;0.47;;
55210;SDS011;41082;52.822;6.666;2023-07-31T09:13:12;1.13;;;0.38;;
55210;SDS011;41082;52.822;6.666;2023-07-31T09:15:38;1.63;;;0.60;;
55210;SDS011;41082;52.822;6.666;2023-07-31T09:18:07;2.05;;;0.30;;
55210;SDS011;41082;52.822;6.666;2023-07-31T09:20:34;0.90;;;0.40;;
55210;SDS011;41082;52.822;6.666;2023-07-31T09:23:08;0.90;;;0.30;;
55210;SDS011;41082;52.822;6.666;2023-07-31T09:25:37;1.58;;;0.60;;
55210;SDS011;41082;52.822;6.666;2023-07-31T09:28:07;0.60;;;0.30;;
55210;SDS011;41082;52.822;6.666;2023-07-31T09:30:47;0.80;;;0.30;;
55210;SDS011;41082;52.822;6.666;2023-07-31T09:33:17;2.40;;;0.30;;
55210;SDS011;41082;52.822;6.666;2023-07-31T09:35:43;0.95;;;0.30;;
55210;SDS011;41082;52.822;6.666;2023-07-31T09:38:12;0.88;;;0.30;;
55210;SDS011;41082;52.822;6.666;2023-07-31T09:40:40;0.70;;;0.20;;
55210;SDS011;41082;52.822;6.666;2023-07-31T09:43:08;2.20;;;0.20;;
55210;SDS011;41082;52.822;6.666;2023-07-31T09:45:36;0.95;;;0.20;;
55210;SDS011;41082;52.822;6.666;2023-07-31T09:48:06;0.50;;;0.30;;
55210;SDS011;41082;52.822;6.666;2023-07-31T09:50:43;0.30;;;0.20;;
55210;SDS011;41082;52.822;6.666;2023-07-31T09:53:10;0.75;;;0.17;;
55210;SDS011;41082;52.822;6.666;2023-07-31T09:55:37;0.60;;;0.20;;
55210;SDS011;41082;52.822;6.666;2023-07-31T09:58:04;0.93;;;0.20;;
55210;SDS011;41082;52.822;6.666;2023-07-31T10:00:31;0.85;;;0.20;;
55210;SDS011;41082;52.822;6.666;2023-07-31T10:03:07;0.52;;;0.22;;
55210;SDS011;41082;52.822;6.666;2023-07-31T10:05:35;1.55;;;0.20;;
55210;SDS011;41082;52.822;6.666;2023-07-31T10:08:27;0.40;;;0.20;;
55210;SDS011;41082;52.822;6.666;2023-07-31T10:10:55;0.73;;;0.20;;
55210;SDS011;41082;52.822;6.666;2023-07-31T10:13:24;0.52;;;0.20;;
55210;SDS011;41082;52.822;6.666;2023-07-31T10:15:50;1.30;;;0.20;;
55210;SDS011;41082;52.822;6.666;2023-07-31T10:18:16;0.40;;;0.20;;
55210;SDS011;41082;52.822;6.666;2023-07-31T10:20:44;1.40;;;0.20;;
55210;SDS011;41082;52.822;6.666;2023-07-31T10:23:10;0.40;;;0.20;;
55210;SDS011;41082;52.822;6.666;2023-07-31T10:25:37;0.25;;;0.20;;
55210;SDS011;41082;52.822;6.666;2023-07-31T10:28:03;0.45;;;0.30;;
55210;SDS011;41082;52.822;6.666;2023-07-31T10:30:31;0.50;;;0.30;;
55210;SDS011;41082;52.822;6.666;2023-07-31T10:32:58;0.38;;;0.20;;
55210;SDS011;41082;52.822;6.666;2023-07-31T10:35:25;0.88;;;0.30;;
55210;SDS011;41082;52.822;6.666;2023-07-31T10:37:50;1.05;;;0.30;;
55210;SDS011;41082;52.822;6.666;2023-07-31T10:40:18;1.02;;;0.20;;
55210;SDS011;41082;52.822;6.666;2023-07-31T10:45:36;0.80;;;0.20;;
55210;SDS011;41082;52.822;6.666;2023-07-31T10:48:07;0.88;;;0.20;;
55210;SDS011;41082;52.822;6.666;2023-07-31T10:53:22;0.73;;;0.20;;
55210;SDS011;41082;52.822;6.666;2023-07-31T10:55:49;1.92;;;0.20;;
55210;SDS011;41082;52.822;6.666;2023-07-31T10:58:18;2.13;;;0.20;;
55210;SDS011;41082;52.822;6.666;2023-07-31T11:00:45;0.40;;;0.15;;
55210;SDS011;41082;52.822;6.666;2023-07-31T11:03:18;0.50;;;0.17;;
55210;SDS011;41082;52.822;6.666;2023-07-31T11:05:47;2.15;;;0.20;;
55210;SDS011;41082;52.822;6.666;2023-07-31T11:08:23;0.40;;;0.10;;
55210;SDS011;41082;52.822;6.666;2023-07-31T11:13:28;0.40;;;0.35;;
55210;SDS011;41082;52.822;6.666;2023-07-31T11:15:58;0.47;;;0.20;;
55210;SDS011;41082;52.822;6.666;2023-07-31T11:18:25;1.55;;;0.10;;
55210;SDS011;41082;52.822;6.666;2023-07-31T11:20:52;0.57;;;0.10;;
55210;SDS011;41082;52.822;6.666;2023-07-31T11:23:18;1.23;;;0.10;;
55210;SDS011;41082;52.822;6.666;2023-07-31T11:25:45;0.10;;;0.10;;
55210;SDS011;41082;52.822;6.666;2023-07-31T11:28:12;0.20;;;0.00;;
55210;SDS011;41082;52.822;6.666;2023-07-31T11:30:39;1.77;;;0.10;;
55210;SDS011;41082;52.822;6.666;2023-07-31T11:33:09;0.38;;;0.00;;
55210;SDS011;41082;52.822;6.666;2023-07-31T11:35:40;1.17;;;0.10;;
55210;SDS011;41082;52.822;6.666;2023-07-31T11:38:10;0.55;;;0.03;;
55210;SDS011;41082;52.822;6.666;2023-07-31T11:40:52;0.20;;;0.10;;
55210;SDS011;41082;52.822;6.666;2023-07-31T11:43:19;0.00;;;0.00;;
55210;SDS011;41082;52.822;6.666;2023-07-31T11:45:50;0.57;;;0.03;;
55210;SDS011;41082;52.822;6.666;2023-07-31T11:50:57;0.55;;;0.00;;
55210;SDS011;41082;52.822;6.666;2023-07-31T11:55:54;2.67;;;0.80;;
55210;SDS011;41082;52.822;6.666;2023-07-31T11:58:20;0.63;;;0.25;;
55210;SDS011;41082;52.822;6.666;2023-07-31T12:00:47;1.55;;;0.20;;
55210;SDS011;41082;52.822;6.666;2023-07-31T12:03:13;1.58;;;0.40;;
55210;SDS011;41082;52.822;6.666;2023-07-31T12:05:39;1.77;;;0.47;;
55210;SDS011;41082;52.822;6.666;2023-07-31T12:08:11;0.85;;;0.20;;
55210;SDS011;41082;52.822;6.666;2023-07-31T12:10:37;0.70;;;0.20;;
55210;SDS011;41082;52.822;6.666;2023-07-31T12:13:05;0.80;;;0.15;;
55210;SDS011;41082;52.822;6.666;2023-07-31T12:15:44;1.13;;;0.10;;
55210;SDS011;41082;52.822;6.666;2023-07-31T12:18:12;0.65;;;0.30;;
55210;SDS011;41082;52.822;6.666;2023-07-31T12:20:48;4.50;;;0.30;;
55210;SDS011;41082;52.822;6.666;2023-07-31T12:23:20;3.97;;;0.40;;
55210;SDS011;41082;52.822;6.666;2023-07-31T12:28:55;1.13;;;0.20;;
55210;SDS011;41082;52.822;6.666;2023-07-31T12:31:22;1.23;;;0.20;;
55210;SDS011;41082;52.822;6.666;2023-07-31T12:33:52;2.40;;;0.20;;
55210;SDS011;41082;52.822;6.666;2023-07-31T12:36:22;4.60;;;0.30;;
55210;SDS011;41082;52.822;6.666;2023-07-31T12:38:52;1.55;;;0.40;;
55210;SDS011;41082;52.822;6.666;2023-07-31T12:41:18;2.40;;;0.73;;
55210;SDS011;41082;52.822;6.666;2023-07-31T12:43:44;1.63;;;0.50;;
55210;SDS011;41082;52.822;6.666;2023-07-31T12:46:10;3.67;;;0.60;;
55210;SDS011;41082;52.822;6.666;2023-07-31T12:48:36;3.83;;;0.90;;
55210;SDS011;41082;52.822;6.666;2023-07-31T12:51:03;2.50;;;0.70;;
55210;SDS011;41082;52.822;6.666;2023-07-31T12:53:29;2.10;;;0.80;;
55210;SDS011;41082;52.822;6.666;2023-07-31T12:55:55;4.85;;;1.50;;
55210;SDS011;41082;52.822;6.666;2023-07-31T12:58:21;4.10;;;1.00;;
55210;SDS011;41082;52.822;6.666;2023-07-31T13:00:47;5.28;;;1.50;;
55210;SDS011;41082;52.822;6.666;2023-07-31T13:03:12;7.10;;;1.13;;
55210;SDS011;41082;52.822;6.666;2023-07-31T13:05:38;5.72;;;1.60;;
55210;SDS011;41082;52.822;6.666;2023-07-31T13:08:04;4.47;;;1.58;;
55210;SDS011;41082;52.822;6.666;2023-07-31T13:10:29;2.95;;;1.10;;
55210;SDS011;41082;52.822;6.666;2023-07-31T13:12:55;3.60;;;0.88;;
55210;SDS011;41082;52.822;6.666;2023-07-31T13:15:21;4.65;;;1.30;;
55210;SDS011;41082;52.822;6.666;2023-07-31T13:17:47;2.72;;;0.90;;
55210;SDS011;41082;52.822;6.666;2023-07-31T13:20:12;3.63;;;1.20;;
55210;SDS011;41082;52.822;6.666;2023-07-31T13:22:38;5.35;;;1.77;;
55210;SDS011;41082;52.822;6.666;2023-07-31T13:25:04;5.55;;;1.40;;
55210;SDS011;41082;52.822;6.666;2023-07-31T13:27:30;3.97;;;1.42;;
55210;SDS011;41082;52.822;6.666;2023-07-31T13:29:56;4.57;;;1.50;;
55210;SDS011;41082;52.822;6.666;2023-07-31T13:32:21;7.50;;;1.55;;
55210;SDS011;41082;52.822;6.666;2023-07-31T13:34:47;7.80;;;1.30;;
55210;SDS011;41082;52.822;6.666;2023-07-31T13:37:13;3.72;;;0.85;;
55210;SDS011;41082;52.822;6.666;2023-07-31T13:39:39;4.25;;;1.30;;
55210;SDS011;41082;52.822;6.666;2023-07-31T13:42:06;2.83;;;1.00;;
55210;SDS011;41082;52.822;6.666;2023-07-31T13:44:36;4.75;;;1.23;;
55210;SDS011;41082;52.822;6.666;2023-07-31T13:47:05;4.25;;;1.10;;
55210;SDS011;41082;52.822;6.666;2023-07-31T13:49:31;4.55;;;0.95;;
55210;SDS011;41082;52.822;6.666;2023-07-31T13:51:57;5.53;;;1.00;;
55210;SDS011;41082;52.822;6.666;2023-07-31T13:54:23;5.60;;;1.38;;
55210;SDS011;41082;52.822;6.666;2023-07-31T13:56:49;4.05;;;0.80;;
55210;SDS011;41082;52.822;6.666;2023-07-31T13:59:15;3.80;;;1.00;;
55210;SDS011;41082;52.822;6.666;2023-07-31T14:01:41;3.85;;;0.93;;
55210;SDS011;41082;52.822;6.666;2023-07-31T14:04:07;4.25;;;0.90;;
55210;SDS011;41082;52.822;6.666;2023-07-31T14:06:33;4.60;;;1.00;;
55210;SDS011;41082;52.822;6.666;2023-07-31T14:08:59;3.58;;;0.98;;
55210;SDS011;41082;52.822;6.666;2023-07-31T14:11:24;3.40;;;1.08;;
55210;SDS011;41082;52.822;6.666;2023-07-31T14:13:50;4.97;;;1.30;;
55210;SDS011;41082;52.822;6.666;2023-07-31T14:16:16;8.05;;;1.30;;
55210;SDS011;41082;52.822;6.666;2023-07-31T14:18:42;4.18;;;1.67;;
55210;SDS011;41082;52.822;6.666;2023-07-31T14:21:08;3.40;;;1.13;;
55210;SDS011;41082;52.822;6.666;2023-07-31T14:23:34;2.97;;;0.95;;
55210;SDS011;41082;52.822;6.666;2023-07-31T14:26:00;3.33;;;1.05;;
55210;SDS011;41082;52.822;6.666;2023-07-31T14:28:25;6.28;;;1.00;;
55210;SDS011;41082;52.822;6.666;2023-07-31T14:30:51;4.05;;;1.30;;
55210;SDS011;41082;52.822;6.666;2023-07-31T14:33:17;5.43;;;1.45;;
55210;SDS011;41082;52.822;6.666;2023-07-31T14:35:42;3.38;;;1.20;;
55210;SDS011;41082;52.822;6.666;2023-07-31T14:38:08;4.57;;;1.20;;
55210;SDS011;41082;52.822;6.666;2023-07-31T14:40:34;3.67;;;1.60;;
55210;SDS011;41082;52.822;6.666;2023-07-31T14:42:59;5.38;;;1.35;;
55210;SDS011;41082;52.822;6.666;2023-07-31T14:45:25;6.45;;;1.00;;
55210;SDS011;41082;52.822;6.666;2023-07-31T14:47:50;5.10;;;1.50;;
55210;SDS011;41082;52.822;6.666;2023-07-31T14:50:16;7.18;;;1.70;;
55210;SDS011;41082;52.822;6.666;2023-07-31T14:52:42;4.57;;;1.25;;
55210;SDS011;41082;52.822;6.666;2023-07-31T14:55:07;3.75;;;1.35;;
55210;SDS011;41082;52.822;6.666;2023-07-31T14:57:34;5.88;;;1.38;;
55210;SDS011;41082;52.822;6.666;2023-07-31T15:00:00;4.40;;;1.42;;
55210;SDS011;41082;52.822;6.666;2023-07-31T15:02:25;3.58;;;1.15;;
55210;SDS011;41082;52.822;6.666;2023-07-31T15:04:52;5.05;;;1.55;;